sensor_id;sensor_type;location;lat;lon;timestamp;P1;durP1;ratioP1;P2;durP2;ratioP2
1569;SDS011;778;50.120;8.698;2022-10-17T03:01:09;9.80;;;8.90;;
1569;SDS011;778;50.120;8.698;2022-10-17T03:03:38;7.40;;;6.70;;
1569;SDS011;778;50.120;8.698;2022-10-17T03:06:06;9.23;;;7.43;;
1569;SDS011;778;50.120;8.698;2022-10-17T03:08:34;11.30;;;7.37;;
1569;SDS011;778;50.120;8.698;2022-10-17T03:11:08;8.70;;;7.90;;
1569;SDS011;778;50.120;8.698;2022-10-17T03:13:37;7.97;;;7.37;;
1569;SDS011;778;50.120;8.698;2022-10-17T03:16:06;7.93;;;7.33;;
1569;SDS011;778;50.120;8.698;2022-10-17T03:18:37;9.63;;;7.03;;
1569;SDS011;778;50.120;8.698;2022-10-17T03:21:06;7.17;;;6.47;;
1569;SDS011;778;50.120;8.698;2022-10-17T03:23:35;7.63;;;6.90;;
1569;SDS011;778;50.120;8.698;2022-10-17T03:26:05;7.47;;;6.73;;
1569;SDS011;778;50.120;8.698;2022-10-17T03:28:34;8.30;;;6.40;;
1569;SDS011;778;50.120;8.698;2022-10-17T03:31:07;8.70;;;6.77;;
1569;SDS011;778;50.120;8.698;2022-10-17T03:33:42;7.17;;;6.53;;
1569;SDS011;778;50.120;8.698;2022-10-17T03:36:11;7.40;;;6.70;;
1569;SDS011;778;50.120;8.698;2022-10-17T03:38:44;7.30;;;6.63;;
1569;SDS011;778;50.120;8.698;2022-10-17T03:41:15;6.37;;;5.73;;
1569;SDS011;778;50.120;8.698;2022-10-17T03:43:43;7.33;;;6.70;;
1569;SDS011;778;50.120;8.698;2022-10-17T03:46:13;9.57;;;7.23;;
1569;SDS011;778;50.120;8.698;2022-10-17T03:48:43;7.37;;;6.67;;
1569;SDS011;778;50.120;8.698;2022-10-17T03:51:11;7.70;;;6.87;;
1569;SDS011;778;50.120;8.698;2022-10-17T03:53:45;6.83;;;6.20;;
1569;SDS011;778;50.120;8.698;2022-10-17T03:56:14;7.83;;;7.03;;
1569;SDS011;778;50.120;8.698;2022-10-17T03:58:52;6.83;;;6.23;;
1569;SDS011;778;50.120;8.698;2022-10-17T04:01:23;8.90;;;8.10;;
1569;SDS011;778;50.120;8.698;2022-10-17T04:03:53;9.17;;;8.07;;
1569;SDS011;778;50.120;8.698;2022-10-17T04:06:27;8.00;;;7.30;;
1569;SDS011;778;50.120;8.698;2022-10-17T04:08:55;8.50;;;7.77;;
1569;SDS011;778;50.120;8.698;2022-10-17T04:11:30;8.83;;;7.67;;
1569;SDS011;778;50.120;8.698;2022-10-17T04:13:59;8.87;;;8.07;;
1569;SDS011;778;50.120;8.698;2022-10-17T04:16:30;9.80;;;7.40;;
1569;SDS011;778;50.120;8.698;2022-10-17T04:19:02;13.40;;;8.93;;
1569;SDS011;778;50.120;8.698;2022-10-17T04:21:37;11.20;;;7.10;;
1569;SDS011;778;50.120;8.698;2022-10-17T04:24:07;8.20;;;7.50;;
1569;SDS011;778;50.120;8.698;2022-10-17T04:26:43;9.10;;;7.33;;
1569;SDS011;778;50.120;8.698;2022-10-17T04:29:13;8.40;;;7.20;;
1569;SDS011;778;50.120;8.698;2022-10-17T04:31:44;9.40;;;8.40;;
1569;SDS011;778;50.120;8.698;2022-10-17T04:34:20;11.60;;;8.50;;
1569;SDS011;778;50.120;8.698;2022-10-17T04:36:49;8.40;;;7.50;;
1569;SDS011;778;50.120;8.698;2022-10-17T04:39:18;8.90;;;7.43;;
1569;SDS011;778;50.120;8.698;2022-10-17T04:41:47;7.80;;;6.60;;
1569;SDS011;778;50.120;8.698;2022-10-17T04:44:15;8.53;;;7.73;;
1569;SDS011;778;50.120;8.698;2022-10-17T04:46:50;7.87;;;6.87;;
1569;SDS011;778;50.120;8.698;2022-10-17T04:49:21;7.10;;;6.50;;
1569;SDS011;778;50.120;8.698;2022-10-17T04:51:52;8.10;;;6.97;;
1569;SDS011;778;50.120;8.698;2022-10-17T04:54:50;7.83;;;7.13;;
1569;SDS011;778;50.120;8.698;2022-10-17T04:57:19;7.83;;;6.90;;
1569;SDS011;778;50.120;8.698;2022-10-17T04:59:55;7.57;;;6.73;;
1569;SDS011;778;50.120;8.698;2022-10-17T05:02:47;7.73;;;6.47;;
1569;SDS011;778;50.120;8.698;2022-10-17T05:05:16;15.03;;;6.73;;
1569;SDS011;778;50.120;8.698;2022-10-17T05:07:47;8.97;;;6.70;;
1569;SDS011;778;50.120;8.698;2022-10-17T05:10:17;7.97;;;7.27;;
1569;SDS011;778;50.120;8.698;2022-10-17T05:12:48;8.40;;;6.80;;
1569;SDS011;778;50.120;8.698;2022-10-17T05:15:20;7.33;;;6.63;;
1569;SDS011;778;50.120;8.698;2022-10-17T05:17:54;7.40;;;6.70;;
1569;SDS011;778;50.120;8.698;2022-10-17T05:20:25;8.33;;;7.53;;
1569;SDS011;778;50.120;8.698;2022-10-17T05:22:54;9.20;;;7.73;;
1569;SDS011;778;50.120;8.698;2022-10-17T05:25:26;8.30;;;7.50;;
1569;SDS011;778;50.120;8.698;2022-10-17T05:27:55;8.17;;;6.80;;
1569;SDS011;778;50.120;8.698;2022-10-17T05:30:23;12.60;;;8.10;;
1569;SDS011;778;50.120;8.698;2022-10-17T05:32:58;6.90;;;6.30;;
1569;SDS011;778;50.120;8.698;2022-10-17T05:35:26;11.47;;;7.80;;
1569;SDS011;778;50.120;8.698;2022-10-17T05:37:55;8.93;;;7.23;;
1569;SDS011;778;50.120;8.698;2022-10-17T05:40:28;12.40;;;6.90;;
1569;SDS011;778;50.120;8.698;2022-10-17T05:42:57;8.30;;;7.47;;
1569;SDS011;778;50.120;8.698;2022-10-17T05:45:25;8.77;;;7.47;;
1569;SDS011;778;50.120;8.698;2022-10-17T05:47:55;8.60;;;6.60;;
1569;SDS011;778;50.120;8.698;2022-10-17T05:50:25;8.90;;;7.27;;
1569;SDS011;778;50.120;8.698;2022-10-17T05:53:13;10.17;;;7.10;;
1569;SDS011;778;50.120;8.698;2022-10-17T05:55:53;8.13;;;7.20;;
1569;SDS011;778;50.120;8.698;2022-10-17T05:58:23;11.70;;;7.63;;
1569;SDS011;778;50.120;8.698;2022-10-17T06:01:23;11.77;;;7.30;;
1569;SDS011;778;50.120;8.698;2022-10-17T06:03:52;11.90;;;6.37;;
1569;SDS011;778;50.120;8.698;2022-10-17T06:06:22;7.47;;;6.77;;
1569;SDS011;778;50.120;8.698;2022-10-17T06:08:50;10.93;;;7.17;;
1569;SDS011;778;50.120;8.698;2022-10-17T06:11:25;13.53;;;6.70;;
1569;SDS011;778;50.120;8.698;2022-10-17T06:13:53;9.90;;;7.80;;
1569;SDS011;778;50.120;8.698;2022-10-17T06:16:24;9.00;;;6.67;;
1569;SDS011;778;50.120;8.698;2022-10-17T06:18:52;8.20;;;7.40;;
1569;SDS011;778;50.120;8.698;2022-10-17T06:21:24;9.17;;;8.20;;
1569;SDS011;778;50.120;8.698;2022-10-17T06:24:04;8.13;;;6.90;;
1569;SDS011;778;50.120;8.698;2022-10-17T06:26:38;8.80;;;7.47;;
1569;SDS011;778;50.120;8.698;2022-10-17T06:29:08;9.17;;;8.20;;
1569;SDS011;778;50.120;8.698;2022-10-17T06:31:45;10.97;;;7.90;;
1569;SDS011;778;50.120;8.698;2022-10-17T06:34:13;14.53;;;7.80;;
1569;SDS011;778;50.120;8.698;2022-10-17T06:36:44;13.50;;;7.47;;
1569;SDS011;778;50.120;8.698;2022-10-17T06:39:13;18.40;;;9.30;;
1569;SDS011;778;50.120;8.698;2022-10-17T06:41:50;15.33;;;8.50;;
1569;SDS011;778;50.120;8.698;2022-10-17T06:44:18;13.93;;;7.80;;
1569;SDS011;778;50.120;8.698;2022-10-17T06:47:06;18.63;;;8.67;;
1569;SDS011;778;50.120;8.698;2022-10-17T06:49:36;29.40;;;10.27;;
1569;SDS011;778;50.120;8.698;2022-10-17T06:52:28;15.60;;;8.23;;
1569;SDS011;778;50.120;8.698;2022-10-17T06:55:16;11.50;;;7.10;;
1569;SDS011;778;50.120;8.698;2022-10-17T06:58:15;12.20;;;7.20;;
1569;SDS011;778;50.120;8.698;2022-10-17T07:01:10;9.20;;;7.30;;
1569;SDS011;778;50.120;8.698;2022-10-17T07:03:41;11.40;;;8.00;;
1569;SDS011;778;50.120;8.698;2022-10-17T07:06:10;10.20;;;7.37;;
1569;SDS011;778;50.120;8.698;2022-10-17T07:08:42;16.30;;;8.23;;
1569;SDS011;778;50.120;8.698;2022-10-17T07:11:15;13.80;;;8.67;;
1569;SDS011;778;50.120;8.698;2022-10-17T07:13:48;27.67;;;9.37;;
1569;SDS011;778;50.120;8.698;2022-10-17T07:16:16;17.00;;;7.07;;
1569;SDS011;778;50.120;8.698;2022-10-17T07:18:51;15.47;;;7.43;;
1569;SDS011;778;50.120;8.698;2022-10-17T07:21:19;19.20;;;8.83;;
1569;SDS011;778;50.120;8.698;2022-10-17T07:23:49;14.00;;;7.10;;
1569;SDS011;778;50.120;8.698;2022-10-17T07:26:19;16.47;;;7.80;;
1569;SDS011;778;50.120;8.698;2022-10-17T07:28:50;19.80;;;9.13;;
1569;SDS011;778;50.120;8.698;2022-10-17T07:31:33;12.03;;;7.47;;
1569;SDS011;778;50.120;8.698;2022-10-17T07:34:02;12.40;;;7.40;;
1569;SDS011;778;50.120;8.698;2022-10-17T07:36:30;12.90;;;8.27;;
1569;SDS011;778;50.120;8.698;2022-10-17T07:39:03;17.80;;;8.10;;
1569;SDS011;778;50.120;8.698;2022-10-17T07:41:33;10.10;;;7.47;;
1569;SDS011;778;50.120;8.698;2022-10-17T07:44:03;15.90;;;8.50;;
1569;SDS011;778;50.120;8.698;2022-10-17T07:46:39;11.37;;;7.70;;
1569;SDS011;778;50.120;8.698;2022-10-17T07:49:07;13.97;;;8.47;;
1569;SDS011;778;50.120;8.698;2022-10-17T07:51:36;13.50;;;9.00;;
1569;SDS011;778;50.120;8.698;2022-10-17T07:54:06;9.70;;;6.60;;
1569;SDS011;778;50.120;8.698;2022-10-17T07:56:34;15.03;;;8.43;;
1569;SDS011;778;50.120;8.698;2022-10-17T07:59:03;13.93;;;7.80;;
1569;SDS011;778;50.120;8.698;2022-10-17T08:01:35;9.87;;;7.17;;
1569;SDS011;778;50.120;8.698;2022-10-17T08:04:03;7.53;;;6.83;;
1569;SDS011;778;50.120;8.698;2022-10-17T08:06:32;14.50;;;7.80;;
1569;SDS011;778;50.120;8.698;2022-10-17T08:09:00;10.97;;;7.83;;
1569;SDS011;778;50.120;8.698;2022-10-17T08:11:30;7.83;;;7.10;;
1569;SDS011;778;50.120;8.698;2022-10-17T08:13:59;9.23;;;7.93;;
1569;SDS011;778;50.120;8.698;2022-10-17T08:16:27;9.30;;;6.97;;
1569;SDS011;778;50.120;8.698;2022-10-17T08:18:55;11.00;;;6.57;;
1569;SDS011;778;50.120;8.698;2022-10-17T08:21:24;8.67;;;6.60;;
1569;SDS011;778;50.120;8.698;2022-10-17T08:23:52;6.60;;;5.90;;
1569;SDS011;778;50.120;8.698;2022-10-17T08:26:21;14.63;;;8.03;;
1569;SDS011;778;50.120;8.698;2022-10-17T08:28:50;10.23;;;7.60;;
1569;SDS011;778;50.120;8.698;2022-10-17T08:31:19;10.63;;;6.20;;
1569;SDS011;778;50.120;8.698;2022-10-17T08:33:49;6.20;;;5.70;;
1569;SDS011;778;50.120;8.698;2022-10-17T08:36:18;10.63;;;7.03;;
1569;SDS011;778;50.120;8.698;2022-10-17T08:38:47;12.20;;;6.00;;
1569;SDS011;778;50.120;8.698;2022-10-17T08:41:21;5.67;;;5.27;;
1569;SDS011;778;50.120;8.698;2022-10-17T08:44:27;8.10;;;6.87;;
1569;SDS011;778;50.120;8.698;2022-10-17T08:47:09;7.23;;;5.37;;
1569;SDS011;778;50.120;8.698;2022-10-17T08:49:45;7.37;;;5.47;;
1569;SDS011;778;50.120;8.698;2022-10-17T08:52:20;6.40;;;5.50;;
1569;SDS011;778;50.120;8.698;2022-10-17T08:54:57;10.70;;;5.50;;
1569;SDS011;778;50.120;8.698;2022-10-17T08:57:26;6.83;;;4.30;;
1569;SDS011;778;50.120;8.698;2022-10-17T08:59:56;7.73;;;4.63;;
1569;SDS011;778;50.120;8.698;2022-10-17T09:05:23;6.10;;;5.47;;
1569;SDS011;778;50.120;8.698;2022-10-17T09:08:02;12.97;;;5.30;;
1569;SDS011;778;50.120;8.698;2022-10-17T09:10:46;8.40;;;5.40;;
1569;SDS011;778;50.120;8.698;2022-10-17T09:13:28;4.37;;;4.00;;
1569;SDS011;778;50.120;8.698;2022-10-17T09:16:27;7.77;;;4.80;;
1569;SDS011;778;50.120;8.698;2022-10-17T09:19:09;10.83;;;4.90;;
1569;SDS011;778;50.120;8.698;2022-10-17T09:21:51;7.07;;;4.87;;
1569;SDS011;778;50.120;8.698;2022-10-17T09:24:39;6.20;;;5.60;;
1569;SDS011;778;50.120;8.698;2022-10-17T09:27:21;11.07;;;5.00;;
1569;SDS011;778;50.120;8.698;2022-10-17T09:29:53;11.97;;;5.40;;
1569;SDS011;778;50.120;8.698;2022-10-17T09:32:43;11.30;;;5.20;;
1569;SDS011;778;50.120;8.698;2022-10-17T09:35:13;4.97;;;4.43;;
1569;SDS011;778;50.120;8.698;2022-10-17T09:37:42;7.13;;;5.10;;
1569;SDS011;778;50.120;8.698;2022-10-17T09:40:18;4.97;;;4.10;;
1569;SDS011;778;50.120;8.698;2022-10-17T09:42:51;8.03;;;4.33;;
1569;SDS011;778;50.120;8.698;2022-10-17T09:45:21;6.90;;;5.60;;
1569;SDS011;778;50.120;8.698;2022-10-17T09:47:56;4.47;;;4.17;;
1569;SDS011;778;50.120;8.698;2022-10-17T09:50:34;9.63;;;6.00;;
1569;SDS011;778;50.120;8.698;2022-10-17T09:53:05;9.20;;;5.90;;
1569;SDS011;778;50.120;8.698;2022-10-17T09:55:40;7.40;;;4.60;;
1569;SDS011;778;50.120;8.698;2022-10-17T09:58:11;8.00;;;5.00;;
1569;SDS011;778;50.120;8.698;2022-10-17T10:00:40;8.43;;;5.27;;
1569;SDS011;778;50.120;8.698;2022-10-17T10:03:16;10.23;;;4.63;;
1569;SDS011;778;50.120;8.698;2022-10-17T10:05:57;6.63;;;4.30;;
1569;SDS011;778;50.120;8.698;2022-10-17T10:08:30;5.07;;;4.17;;
1569;SDS011;778;50.120;8.698;2022-10-17T10:11:02;10.60;;;5.10;;
1569;SDS011;778;50.120;8.698;2022-10-17T10:13:34;4.80;;;4.40;;
1569;SDS011;778;50.120;8.698;2022-10-17T10:16:14;5.20;;;4.53;;
1569;SDS011;778;50.120;8.698;2022-10-17T10:18:51;8.80;;;4.37;;
1569;SDS011;778;50.120;8.698;2022-10-17T10:21:20;7.00;;;4.70;;
1569;SDS011;778;50.120;8.698;2022-10-17T10:24:03;7.23;;;4.00;;
1569;SDS011;778;50.120;8.698;2022-10-17T10:26:39;7.23;;;4.50;;
1569;SDS011;778;50.120;8.698;2022-10-17T10:29:19;7.23;;;3.90;;
1569;SDS011;778;50.120;8.698;2022-10-17T10:31:54;5.80;;;4.60;;
1569;SDS011;778;50.120;8.698;2022-10-17T10:34:26;7.70;;;4.10;;
1569;SDS011;778;50.120;8.698;2022-10-17T10:36:58;6.70;;;4.57;;
1569;SDS011;778;50.120;8.698;2022-10-17T10:39:33;7.83;;;5.37;;
1569;SDS011;778;50.120;8.698;2022-10-17T10:42:19;6.67;;;4.10;;
1569;SDS011;778;50.120;8.698;2022-10-17T10:44:52;4.30;;;3.90;;
1569;SDS011;778;50.120;8.698;2022-10-17T10:47:25;5.77;;;4.40;;
1569;SDS011;778;50.120;8.698;2022-10-17T10:50:07;3.50;;;3.13;;
1569;SDS011;778;50.120;8.698;2022-10-17T10:52:56;5.03;;;3.87;;
1569;SDS011;778;50.120;8.698;2022-10-17T10:55:40;7.23;;;4.20;;
1569;SDS011;778;50.120;8.698;2022-10-17T10:58:27;6.43;;;4.00;;
1569;SDS011;778;50.120;8.698;2022-10-17T11:01:11;7.57;;;4.40;;
1569;SDS011;778;50.120;8.698;2022-10-17T11:03:50;4.33;;;3.93;;
1569;SDS011;778;50.120;8.698;2022-10-17T11:06:29;4.53;;;4.13;;
1569;SDS011;778;50.120;8.698;2022-10-17T11:09:06;9.50;;;4.83;;
1569;SDS011;778;50.120;8.698;2022-10-17T11:11:46;6.20;;;4.10;;
1569;SDS011;778;50.120;8.698;2022-10-17T11:14:24;4.10;;;3.77;;
1569;SDS011;778;50.120;8.698;2022-10-17T11:17:07;4.50;;;3.93;;
1569;SDS011;778;50.120;8.698;2022-10-17T11:19:47;8.17;;;3.63;;
1569;SDS011;778;50.120;8.698;2022-10-17T11:22:35;6.23;;;3.97;;
1569;SDS011;778;50.120;8.698;2022-10-17T11:25:13;6.53;;;3.50;;
1569;SDS011;778;50.120;8.698;2022-10-17T11:27:54;8.33;;;3.20;;
1569;SDS011;778;50.120;8.698;2022-10-17T11:30:31;4.20;;;3.77;;
1569;SDS011;778;50.120;8.698;2022-10-17T11:33:14;4.53;;;3.10;;
1569;SDS011;778;50.120;8.698;2022-10-17T11:35:51;7.80;;;3.90;;
1569;SDS011;778;50.120;8.698;2022-10-17T11:38:30;6.17;;;3.77;;
1569;SDS011;778;50.120;8.698;2022-10-17T11:41:10;4.10;;;3.70;;
1569;SDS011;778;50.120;8.698;2022-10-17T11:43:45;5.50;;;3.50;;
1569;SDS011;778;50.120;8.698;2022-10-17T11:46:20;3.60;;;3.30;;
1569;SDS011;778;50.120;8.698;2022-10-17T11:48:58;9.83;;;3.73;;
1569;SDS011;778;50.120;8.698;2022-10-17T11:51:35;4.57;;;3.50;;
1569;SDS011;778;50.120;8.698;2022-10-17T11:54:30;5.23;;;3.50;;
1569;SDS011;778;50.120;8.698;2022-10-17T11:57:15;5.13;;;3.07;;
